Aom Julia — 3FNQ3 — position and weather

sailwx.info

Track history (hours):
 
Tides and Currents Weather Stations Pressure Air Temp Water Temp Dewpoint Dewpoint Depression Visibility Wind Speed Wind Dir Waves Ship Positions

Aom Julia

Last reported at 2018-Jan-30 11:10 UTC. Time now 2018-Feb-23 02:40 UTC.
Position N 36°49' W 075°46'.
Warning: this ship's position is 23 days out of date.

Length 225 m; draft 14.3 m.

Type: Cargo ship. MMSI: 355891000.

Date/timePositionNaut miles runAvg speedWind from/ knotsBaromVisibWave heightAir tempDewpointWater temp
2018-Jan-30 11:10N 36°49' W 075°46'6 9.0
2018-Jan-30 10:30N 36°52' W 075°52'9 8.8
2018-Jan-30 09:30N 36°57' W 076°02'4 8.9
2018-Jan-30 09:00N 36°59' W 076°07'5 8.9
2018-Jan-30 08:28N 36°60' W 076°13'5 9.6
2018-Jan-30 07:55N 36°59' W 076°19'4 9.6
2018-Jan-30 07:30N 36°57' W 076°24'1 0.1
2018-Jan-29 15:29N 36°58' W 076°25'0 0.0
2018-Jan-29 14:59N 36°58' W 076°25'0 0.0
2018-Jan-29 04:11N 36°58' W 076°25'0 0.0
2018-Jan-29 03:11N 36°58' W 076°25'0 0.0
2018-Jan-29 01:41N 36°58' W 076°25'0 0.0
2018-Jan-29 01:29N 36°58' W 076°25'0 0.0
2018-Jan-29 00:56N 36°58' W 076°25'0 0.0
2018-Jan-29 00:29N 36°58' W 076°25'0 0.0
2018-Jan-28 23:53N 36°58' W 076°25'0 0.0
2018-Jan-28 23:29N 36°58' W 076°25'0 0.0
2018-Jan-28 22:59N 36°58' W 076°25'0 0.0
2018-Jan-28 20:53N 36°58' W 076°25'0 0.0
2018-Jan-28 20:23N 36°58' W 076°25'0 0.0
2018-Jan-28 19:59N 36°58' W 076°25'0 0.0
2018-Jan-28 19:23N 36°58' W 076°25'0 0.0
2018-Jan-28 18:59N 36°58' W 076°25'0 0.0
2018-Jan-28 17:53N 36°58' W 076°25'0 0.0
2018-Jan-28 16:11N 36°58' W 076°25'0 0.0
2018-Jan-28 15:59N 36°58' W 076°25'0 0.0
2018-Jan-28 15:29N 36°58' W 076°25'0 0.0
2018-Jan-28 14:59N 36°58' W 076°25'0 0.0
2018-Jan-28 14:29N 36°58' W 076°25'0 0.0
2018-Jan-28 13:59N 36°58' W 076°25'0 0.0
2018-Jan-28 13:29N 36°58' W 076°25'0 0.0
2018-Jan-28 12:59N 36°58' W 076°25'0 0.0
2018-Jan-28 12:23N 36°58' W 076°25'0 0.0
2018-Jan-28 11:47N 36°58' W 076°25'0 0.0
2018-Jan-28 11:29N 36°58' W 076°25'0 0.0
2018-Jan-28 10:59N 36°58' W 076°25'0 0.0
2018-Jan-28 10:29N 36°58' W 076°25'0 0.0
2018-Jan-28 09:59N 36°58' W 076°25'0 0.0
2018-Jan-28 09:29N 36°58' W 076°25'0 0.0
2018-Jan-28 08:59N 36°58' W 076°25'0 0.0
2018-Jan-28 08:29N 36°58' W 076°25'0 0.0
2018-Jan-28 07:59N 36°58' W 076°25'0 0.0
2018-Jan-28 07:29N 36°58' W 076°25'0 0.0
2018-Jan-28 06:59N 36°58' W 076°25'0 0.0
2018-Jan-28 06:29N 36°58' W 076°25'0 0.0
2018-Jan-28 05:59N 36°58' W 076°25'0 0.0
2018-Jan-28 05:29N 36°58' W 076°25'0 0.0
2018-Jan-28 04:47N 36°58' W 076°25'0 0.0
2018-Jan-28 04:29N 36°58' W 076°25'0 0.0
2018-Jan-28 03:53N 36°58' W 076°25'0 0.0
2018-Jan-28 03:29N 36°58' W 076°25'0 0.0
2018-Jan-28 02:59N 36°58' W 076°25'0 0.0
2018-Jan-28 02:29N 36°58' W 076°25'0 0.0
2018-Jan-28 01:56N 36°58' W 076°25'0 0.0
2018-Jan-28 01:29N 36°58' W 076°25'0 0.0
2018-Jan-28 00:53N 36°58' W 076°25'0 0.0
2018-Jan-28 00:29N 36°58' W 076°25'0 0.0
2018-Jan-27 23:53N 36°58' W 076°25'0 0.0
2018-Jan-27 23:29N 36°58' W 076°25'0 0.0
2018-Jan-27 22:59N 36°58' W 076°25'3 5.5
2018-Jan-27 22:29N 36°57' W 076°22'713.4
2018-Jan-27 21:56N 37°00' W 076°14'715.2
2018-Jan-27 21:30N 36°58' W 076°06'3 6.6
2018-Jan-27 20:59N 37°01' W 076°03'713.0
2018-Jan-27 20:29N 37°06' W 076°07'810.4
2018-Jan-27 19:45N 37°14' W 076°06'38 9.2
2018-Jan-27 15:35N 37°52' W 076°10'113.4
2018-Jan-27 15:29N 37°53' W 076°10'913.6
2018-Jan-27 14:51N 38°02' W 076°13'614.1
2018-Jan-27 14:24N 38°08' W 076°14'614.0
2018-Jan-27 13:59N 38°14' W 076°16'713.5
2018-Jan-27 13:26N 38°21' W 076°19'613.7
2018-Jan-27 12:58N 38°27' W 076°22'613.8
2018-Jan-27 12:30N 38°32' W 076°26'713.7
2018-Jan-27 12:00N 38°39' W 076°25'713.9
2018-Jan-27 11:30N 38°46' W 076°26'713.7
2018-Jan-27 11:00N 38°53' W 076°24'612.5
2018-Jan-27 10:30N 38°59' W 076°23'611.1
2018-Jan-27 10:00N 39°05' W 076°24'5 9.5
2018-Jan-27 09:30N 39°09' W 076°25'510.8
2018-Jan-27 09:00N 39°12' W 076°31'4 7.9
2018-Jan-27 08:30N 39°15' W 076°34'0 0.4
2018-Jan-27 08:00N 39°15' W 076°34'0 0.0
2018-Jan-27 07:29N 39°15' W 076°34'0 0.0
2018-Jan-27 06:59N 39°15' W 076°34'0 0.0
2018-Jan-27 06:29N 39°15' W 076°34'0 0.0
2018-Jan-27 05:59N 39°15' W 076°34'0 0.0
2018-Jan-27 05:29N 39°15' W 076°34'0 0.0
2018-Jan-27 04:59N 39°15' W 076°34'0 0.0
2018-Jan-27 04:29N 39°15' W 076°34'0 0.0
2018-Jan-27 03:59N 39°15' W 076°34'0 0.0
2018-Jan-27 03:29N 39°15' W 076°34'0 0.0
2018-Jan-27 02:59N 39°15' W 076°34'0 0.0
2018-Jan-27 02:29N 39°15' W 076°34'0 0.0
2018-Jan-27 01:59N 39°15' W 076°34'0 0.0
2018-Jan-27 01:29N 39°15' W 076°34'0 0.0
2018-Jan-27 00:59N 39°15' W 076°34'0 0.0
2018-Jan-27 00:29N 39°15' W 076°34'0 0.0
2018-Jan-26 23:59N 39°15' W 076°34'0 0.0
2018-Jan-26 23:29N 39°15' W 076°34'0 0.0
2018-Jan-26 22:59N 39°15' W 076°34'0 0.0
2018-Jan-26 22:29N 39°15' W 076°34'0 0.0
2018-Jan-26 21:59N 39°15' W 076°34'0 0.0
2018-Jan-26 21:29N 39°15' W 076°34'0 0.0
2018-Jan-26 20:59N 39°15' W 076°34'0 0.0
2018-Jan-26 20:29N 39°15' W 076°34'0 0.0
2018-Jan-26 19:59N 39°15' W 076°34'0 0.0
2018-Jan-26 19:29N 39°15' W 076°34'0 0.0
2018-Jan-26 18:59N 39°15' W 076°34'0 0.0
2018-Jan-26 18:29N 39°15' W 076°34'0 0.0
2018-Jan-26 17:59N 39°15' W 076°34'0 0.0
2018-Jan-26 17:29N 39°15' W 076°34'0 0.0
2018-Jan-26 17:00N 39°15' W 076°34'1 2.2
2018-Jan-26 16:31N 39°14' W 076°33'4 8.3
2018-Jan-26 16:01N 39°12' W 076°29'510.1
2018-Jan-26 15:30N 39°08' W 076°24'713.6
2018-Jan-26 15:00N 39°02' W 076°23'713.5
2018-Jan-26 14:30N 38°55' W 076°24'2 3.3
2018-Jan-26 13:58N 38°53' W 076°25'0 0.0
2018-Jan-26 13:28N 38°53' W 076°25'0 0.0
2018-Jan-26 12:58N 38°53' W 076°25'0 0.0
2018-Jan-26 12:28N 38°53' W 076°25'0 0.0
2018-Jan-26 11:58N 38°53' W 076°25'0 0.0
2018-Jan-26 11:28N 38°53' W 076°25'0 0.0
2018-Jan-26 10:58N 38°53' W 076°25'0 0.0
2018-Jan-26 10:28N 38°53' W 076°25'0 0.0
2018-Jan-26 09:58N 38°53' W 076°25'0 0.0
2018-Jan-26 09:28N 38°53' W 076°25'0 0.0
2018-Jan-26 08:58N 38°53' W 076°25'0 0.0
2018-Jan-26 08:28N 38°53' W 076°25'0 0.0
2018-Jan-26 07:58N 38°53' W 076°25'0 0.1
2018-Jan-26 07:28N 38°53' W 076°25'0 0.1
2018-Jan-26 06:58N 38°53' W 076°25'0 0.1
2018-Jan-26 06:28N 38°53' W 076°25'0 0.0
2018-Jan-26 05:58N 38°53' W 076°25'0 0.0
2018-Jan-26 05:28N 38°53' W 076°25'0 0.0
2018-Jan-26 04:58N 38°53' W 076°25'0 0.0
2018-Jan-26 04:28N 38°53' W 076°25'0 0.1
2018-Jan-26 03:58N 38°53' W 076°25'0 0.1
2018-Jan-26 03:28N 38°53' W 076°25'0 0.1
2018-Jan-26 02:58N 38°53' W 076°25'0 0.1
2018-Jan-26 02:28N 38°53' W 076°25'0 0.0
2018-Jan-26 01:55N 38°53' W 076°25'0 0.0
2018-Jan-26 01:28N 38°53' W 076°25'0 0.0
2018-Jan-26 00:58N 38°53' W 076°25'0 0.0
2018-Jan-26 00:28N 38°53' W 076°25'0 0.0
2018-Jan-25 23:58N 38°53' W 076°25'0 0.0
2018-Jan-25 23:28N 38°53' W 076°25'0 0.0
2018-Jan-25 22:58N 38°53' W 076°25'0 0.0
2018-Jan-25 22:28N 38°53' W 076°25'0 0.0
2018-Jan-25 21:58N 38°53' W 076°25'0 0.0
2018-Jan-25 21:28N 38°53' W 076°25'0 0.0
2018-Jan-25 20:58N 38°53' W 076°25'0 0.0
2018-Jan-25 20:28N 38°53' W 076°25'0 0.1
2018-Jan-25 19:58N 38°53' W 076°25'0 0.1
2018-Jan-25 19:28N 38°53' W 076°25'0 0.0
2018-Jan-25 18:58N 38°53' W 076°25'0 0.0
2018-Jan-25 18:28N 38°53' W 076°25'0 0.0
2018-Jan-25 17:58N 38°53' W 076°25'0 0.0
2018-Jan-25 17:28N 38°53' W 076°25'0 0.0
2018-Jan-25 16:58N 38°53' W 076°25'0 0.0
2018-Jan-25 16:28N 38°53' W 076°25'0 0.0
2018-Jan-25 15:58N 38°53' W 076°25'0 0.0
2018-Jan-25 15:28N 38°53' W 076°25'0 0.0
2018-Jan-25 14:58N 38°53' W 076°25'0 0.0
2018-Jan-25 14:28N 38°53' W 076°25'0 0.0
2018-Jan-25 13:58N 38°53' W 076°25'0 0.0
2018-Jan-25 13:28N 38°53' W 076°25'0 0.0
2018-Jan-25 12:58N 38°53' W 076°25'0 0.0
2018-Jan-25 12:28N 38°53' W 076°25'0 0.0
2018-Jan-25 11:58N 38°53' W 076°25'0 0.0
2018-Jan-25 11:28N 38°53' W 076°25'0 0.0
2018-Jan-25 10:58N 38°53' W 076°25'0 0.0
2018-Jan-25 10:28N 38°53' W 076°25'0 0.0
2018-Jan-25 09:58N 38°53' W 076°25'0 0.0
2018-Jan-25 09:28N 38°53' W 076°25'0 0.0
2018-Jan-25 08:58N 38°53' W 076°25'0 0.0
2018-Jan-25 08:28N 38°53' W 076°25'0 0.0
2018-Jan-25 07:58N 38°53' W 076°25'0 0.0
2018-Jan-25 07:28N 38°53' W 076°25'0 0.0
2018-Jan-25 06:58N 38°53' W 076°25'0 0.0
2018-Jan-25 06:28N 38°53' W 076°25'0 0.0
2018-Jan-25 05:58N 38°53' W 076°25'0 0.1
2018-Jan-25 05:28N 38°53' W 076°25'0 0.0
2018-Jan-25 04:58N 38°53' W 076°25'0 0.0
2018-Jan-25 04:28N 38°53' W 076°25'0 0.0
2018-Jan-25 03:58N 38°53' W 076°25'0 0.0
2018-Jan-25 03:28N 38°53' W 076°25'0 0.0
2018-Jan-25 02:55N 38°53' W 076°25'0 0.0
2018-Jan-25 02:28N 38°53' W 076°25'0 0.0
2018-Jan-25 01:58N 38°53' W 076°25'0 0.0
2018-Jan-25 01:28N 38°53' W 076°25'0 0.0
2018-Jan-25 00:58N 38°53' W 076°25'0 0.0
2018-Jan-25 00:28N 38°53' W 076°25'0 0.0
2018-Jan-24 23:58N 38°53' W 076°25'0 0.0
2018-Jan-24 23:28N 38°53' W 076°25'0 0.1
2018-Jan-24 22:58N 38°53' W 076°25'0 0.0
2018-Jan-24 22:28N 38°53' W 076°25'0 0.0
2018-Jan-24 21:58N 38°53' W 076°25'0 0.0
2018-Jan-24 21:28N 38°53' W 076°25'0 0.0
2018-Jan-24 20:58N 38°53' W 076°25'0 0.0
2018-Jan-24 20:28N 38°53' W 076°25'0 0.1
2018-Jan-24 19:58N 38°53' W 076°25'0 0.0
2018-Jan-24 19:28N 38°53' W 076°25'0 0.0
2018-Jan-24 18:58N 38°53' W 076°25'0 0.0
2018-Jan-24 18:28N 38°53' W 076°25'0 0.0
2018-Jan-24 17:58N 38°53' W 076°25'0 0.0
2018-Jan-24 17:28N 38°53' W 076°25'0 0.1
2018-Jan-24 16:58N 38°53' W 076°25'0 0.0
2018-Jan-24 16:28N 38°53' W 076°25'0 0.1
2018-Jan-24 15:58N 38°53' W 076°25'0 0.1
2018-Jan-24 15:28N 38°53' W 076°25'0 0.0
2018-Jan-24 14:58N 38°53' W 076°25'0 0.0
2018-Jan-24 14:28N 38°53' W 076°25'0 0.1
2018-Jan-24 13:58N 38°53' W 076°25'0 0.0
2018-Jan-24 13:28N 38°53' W 076°25'0 0.0
2018-Jan-24 12:58N 38°54' W 076°25'0 0.1
2018-Jan-24 12:28N 38°53' W 076°25'0 0.0
2018-Jan-24 11:58N 38°53' W 076°25'0 0.1
2018-Jan-24 11:28N 38°53' W 076°25'0 0.1
2018-Jan-24 10:58N 38°53' W 076°25'0 0.1
2018-Jan-24 10:28N 38°53' W 076°25'0 0.0
2018-Jan-24 09:58N 38°53' W 076°25'0 0.0
2018-Jan-24 09:28N 38°53' W 076°25'0 0.0
2018-Jan-24 08:58N 38°53' W 076°25'0 0.0
2018-Jan-24 08:28N 38°53' W 076°25'0 0.0
2018-Jan-24 07:58N 38°53' W 076°25'0 0.2
2018-Jan-24 07:30N 38°53' W 076°25'2 4.1
2018-Jan-24 07:00N 38°51' W 076°25'611.5
2018-Jan-24 06:30N 38°46' W 076°26'714.0
2018-Jan-24 06:01N 38°39' W 076°26'3713.9
2018-Jan-24 03:19N 38°03' W 076°13'513.9
2018-Jan-24 02:56N 37°58' W 076°11'5513.0
2018-Jan-23 22:43N 37°03' W 076°05'312.8
2018-Jan-23 22:30N 37°01' W 076°03'611.3
2018-Jan-23 22:00N 36°57' W 075°58'4 8.1
2018-Jan-23 21:29N 36°57' W 075°53'4 8.4
2018-Jan-23 21:00N 36°58' W 075°48'3 5.5
2018-Jan-23 20:30N 36°58' W 075°45'2 4.4
2018-Jan-23 19:57N 36°58' W 075°42'  
Track history (hours):
 
Tides and Currents Weather Stations Pressure Air Temp Water Temp Dewpoint Dewpoint Depression Visibility Wind Speed Wind Dir Waves Ship Positions

Aom Julia

Last reported at 2018-Jan-30 11:10 UTC. Time now 2018-Feb-23 02:40 UTC.
Position N 36°49' W 075°46'.
Warning: this ship's position is 23 days out of date.

Length 225 m; draft 14.3 m.

Type: Cargo ship. MMSI: 355891000.

Date/timePositionNaut miles runAvg speedWind from/ knotsBaromVisibWave heightAir tempDewpointWater temp
2018-Jan-30 11:10N 36°49' W 075°46'6 9.0
2018-Jan-30 10:30N 36°52' W 075°52'9 8.8
2018-Jan-30 09:30N 36°57' W 076°02'4 8.9
2018-Jan-30 09:00N 36°59' W 076°07'5 8.9
2018-Jan-30 08:28N 36°60' W 076°13'5 9.6
2018-Jan-30 07:55N 36°59' W 076°19'4 9.6
2018-Jan-30 07:30N 36°57' W 076°24'1 0.1
2018-Jan-29 15:29N 36°58' W 076°25'0 0.0
2018-Jan-29 14:59N 36°58' W 076°25'0 0.0
2018-Jan-29 04:11N 36°58' W 076°25'0 0.0
2018-Jan-29 03:11N 36°58' W 076°25'0 0.0
2018-Jan-29 01:41N 36°58' W 076°25'0 0.0
2018-Jan-29 01:29N 36°58' W 076°25'0 0.0
2018-Jan-29 00:56N 36°58' W 076°25'0 0.0
2018-Jan-29 00:29N 36°58' W 076°25'0 0.0
2018-Jan-28 23:53N 36°58' W 076°25'0 0.0
2018-Jan-28 23:29N 36°58' W 076°25'0 0.0
2018-Jan-28 22:59N 36°58' W 076°25'0 0.0
2018-Jan-28 20:53N 36°58' W 076°25'0 0.0
2018-Jan-28 20:23N 36°58' W 076°25'0 0.0
2018-Jan-28 19:59N 36°58' W 076°25'0 0.0
2018-Jan-28 19:23N 36°58' W 076°25'0 0.0
2018-Jan-28 18:59N 36°58' W 076°25'0 0.0
2018-Jan-28 17:53N 36°58' W 076°25'0 0.0
2018-Jan-28 16:11N 36°58' W 076°25'0 0.0
2018-Jan-28 15:59N 36°58' W 076°25'0 0.0
2018-Jan-28 15:29N 36°58' W 076°25'0 0.0
2018-Jan-28 14:59N 36°58' W 076°25'0 0.0
2018-Jan-28 14:29N 36°58' W 076°25'0 0.0
2018-Jan-28 13:59N 36°58' W 076°25'0 0.0
2018-Jan-28 13:29N 36°58' W 076°25'0 0.0
2018-Jan-28 12:59N 36°58' W 076°25'0 0.0
2018-Jan-28 12:23N 36°58' W 076°25'0 0.0
2018-Jan-28 11:47N 36°58' W 076°25'0 0.0
2018-Jan-28 11:29N 36°58' W 076°25'0 0.0
2018-Jan-28 10:59N 36°58' W 076°25'0 0.0
2018-Jan-28 10:29N 36°58' W 076°25'0 0.0
2018-Jan-28 09:59N 36°58' W 076°25'0 0.0
2018-Jan-28 09:29N 36°58' W 076°25'0 0.0
2018-Jan-28 08:59N 36°58' W 076°25'0 0.0
2018-Jan-28 08:29N 36°58' W 076°25'0 0.0
2018-Jan-28 07:59N 36°58' W 076°25'0 0.0
2018-Jan-28 07:29N 36°58' W 076°25'0 0.0
2018-Jan-28 06:59N 36°58' W 076°25'0 0.0
2018-Jan-28 06:29N 36°58' W 076°25'0 0.0
2018-Jan-28 05:59N 36°58' W 076°25'0 0.0
2018-Jan-28 05:29N 36°58' W 076°25'0 0.0
2018-Jan-28 04:47N 36°58' W 076°25'0 0.0
2018-Jan-28 04:29N 36°58' W 076°25'0 0.0
2018-Jan-28 03:53N 36°58' W 076°25'0 0.0
2018-Jan-28 03:29N 36°58' W 076°25'0 0.0
2018-Jan-28 02:59N 36°58' W 076°25'0 0.0
2018-Jan-28 02:29N 36°58' W 076°25'0 0.0
2018-Jan-28 01:56N 36°58' W 076°25'0 0.0
2018-Jan-28 01:29N 36°58' W 076°25'0 0.0
2018-Jan-28 00:53N 36°58' W 076°25'0 0.0
2018-Jan-28 00:29N 36°58' W 076°25'0 0.0
2018-Jan-27 23:53N 36°58' W 076°25'0 0.0
2018-Jan-27 23:29N 36°58' W 076°25'0 0.0
2018-Jan-27 22:59N 36°58' W 076°25'3 5.5
2018-Jan-27 22:29N 36°57' W 076°22'713.4
2018-Jan-27 21:56N 37°00' W 076°14'715.2
2018-Jan-27 21:30N 36°58' W 076°06'3 6.6
2018-Jan-27 20:59N 37°01' W 076°03'713.0
2018-Jan-27 20:29N 37°06' W 076°07'810.4
2018-Jan-27 19:45N 37°14' W 076°06'38 9.2
2018-Jan-27 15:35N 37°52' W 076°10'113.4
2018-Jan-27 15:29N 37°53' W 076°10'913.6
2018-Jan-27 14:51N 38°02' W 076°13'614.1
2018-Jan-27 14:24N 38°08' W 076°14'614.0
2018-Jan-27 13:59N 38°14' W 076°16'713.5
2018-Jan-27 13:26N 38°21' W 076°19'613.7
2018-Jan-27 12:58N 38°27' W 076°22'613.8
2018-Jan-27 12:30N 38°32' W 076°26'713.7
2018-Jan-27 12:00N 38°39' W 076°25'713.9
2018-Jan-27 11:30N 38°46' W 076°26'713.7
2018-Jan-27 11:00N 38°53' W 076°24'612.5
2018-Jan-27 10:30N 38°59' W 076°23'611.1
2018-Jan-27 10:00N 39°05' W 076°24'5 9.5
2018-Jan-27 09:30N 39°09' W 076°25'510.8
2018-Jan-27 09:00N 39°12' W 076°31'4 7.9
2018-Jan-27 08:30N 39°15' W 076°34'0 0.4
2018-Jan-27 08:00N 39°15' W 076°34'0 0.0
2018-Jan-27 07:29N 39°15' W 076°34'0 0.0
2018-Jan-27 06:59N 39°15' W 076°34'0 0.0
2018-Jan-27 06:29N 39°15' W 076°34'0 0.0
2018-Jan-27 05:59N 39°15' W 076°34'0 0.0
2018-Jan-27 05:29N 39°15' W 076°34'0 0.0
2018-Jan-27 04:59N 39°15' W 076°34'0 0.0
2018-Jan-27 04:29N 39°15' W 076°34'0 0.0
2018-Jan-27 03:59N 39°15' W 076°34'0 0.0
2018-Jan-27 03:29N 39°15' W 076°34'0 0.0
2018-Jan-27 02:59N 39°15' W 076°34'0 0.0
2018-Jan-27 02:29N 39°15' W 076°34'0 0.0
2018-Jan-27 01:59N 39°15' W 076°34'0 0.0
2018-Jan-27 01:29N 39°15' W 076°34'0 0.0
2018-Jan-27 00:59N 39°15' W 076°34'0 0.0
2018-Jan-27 00:29N 39°15' W 076°34'0 0.0
2018-Jan-26 23:59N 39°15' W 076°34'0 0.0
2018-Jan-26 23:29N 39°15' W 076°34'0 0.0
2018-Jan-26 22:59N 39°15' W 076°34'0 0.0
2018-Jan-26 22:29N 39°15' W 076°34'0 0.0
2018-Jan-26 21:59N 39°15' W 076°34'0 0.0
2018-Jan-26 21:29N 39°15' W 076°34'0 0.0
2018-Jan-26 20:59N 39°15' W 076°34'0 0.0
2018-Jan-26 20:29N 39°15' W 076°34'0 0.0
2018-Jan-26 19:59N 39°15' W 076°34'0 0.0
2018-Jan-26 19:29N 39°15' W 076°34'0 0.0
2018-Jan-26 18:59N 39°15' W 076°34'0 0.0
2018-Jan-26 18:29N 39°15' W 076°34'0 0.0
2018-Jan-26 17:59N 39°15' W 076°34'0 0.0
2018-Jan-26 17:29N 39°15' W 076°34'0 0.0
2018-Jan-26 17:00N 39°15' W 076°34'1 2.2
2018-Jan-26 16:31N 39°14' W 076°33'4 8.3
2018-Jan-26 16:01N 39°12' W 076°29'510.1
2018-Jan-26 15:30N 39°08' W 076°24'713.6
2018-Jan-26 15:00N 39°02' W 076°23'713.5
2018-Jan-26 14:30N 38°55' W 076°24'2 3.3
2018-Jan-26 13:58N 38°53' W 076°25'0 0.0
2018-Jan-26 13:28N 38°53' W 076°25'0 0.0
2018-Jan-26 12:58N 38°53' W 076°25'0 0.0
2018-Jan-26 12:28N 38°53' W 076°25'0 0.0
2018-Jan-26 11:58N 38°53' W 076°25'0 0.0
2018-Jan-26 11:28N 38°53' W 076°25'0 0.0
2018-Jan-26 10:58N 38°53' W 076°25'0 0.0
2018-Jan-26 10:28N 38°53' W 076°25'0 0.0
2018-Jan-26 09:58N 38°53' W 076°25'0 0.0
2018-Jan-26 09:28N 38°53' W 076°25'0 0.0
2018-Jan-26 08:58N 38°53' W 076°25'0 0.0
2018-Jan-26 08:28N 38°53' W 076°25'0 0.0
2018-Jan-26 07:58N 38°53' W 076°25'0 0.1
2018-Jan-26 07:28N 38°53' W 076°25'0 0.1
2018-Jan-26 06:58N 38°53' W 076°25'0 0.1
2018-Jan-26 06:28N 38°53' W 076°25'0 0.0
2018-Jan-26 05:58N 38°53' W 076°25'0 0.0
2018-Jan-26 05:28N 38°53' W 076°25'0 0.0
2018-Jan-26 04:58N 38°53' W 076°25'0 0.0
2018-Jan-26 04:28N 38°53' W 076°25'0 0.1
2018-Jan-26 03:58N 38°53' W 076°25'0 0.1
2018-Jan-26 03:28N 38°53' W 076°25'0 0.1
2018-Jan-26 02:58N 38°53' W 076°25'0 0.1
2018-Jan-26 02:28N 38°53' W 076°25'0 0.0
2018-Jan-26 01:55N 38°53' W 076°25'0 0.0
2018-Jan-26 01:28N 38°53' W 076°25'0 0.0
2018-Jan-26 00:58N 38°53' W 076°25'0 0.0
2018-Jan-26 00:28N 38°53' W 076°25'0 0.0
2018-Jan-25 23:58N 38°53' W 076°25'0 0.0
2018-Jan-25 23:28N 38°53' W 076°25'0 0.0
2018-Jan-25 22:58N 38°53' W 076°25'0 0.0
2018-Jan-25 22:28N 38°53' W 076°25'0 0.0
2018-Jan-25 21:58N 38°53' W 076°25'0 0.0
2018-Jan-25 21:28N 38°53' W 076°25'0 0.0
2018-Jan-25 20:58N 38°53' W 076°25'0 0.0
2018-Jan-25 20:28N 38°53' W 076°25'0 0.1
2018-Jan-25 19:58N 38°53' W 076°25'0 0.1
2018-Jan-25 19:28N 38°53' W 076°25'0 0.0
2018-Jan-25 18:58N 38°53' W 076°25'0 0.0
2018-Jan-25 18:28N 38°53' W 076°25'0 0.0
2018-Jan-25 17:58N 38°53' W 076°25'0 0.0
2018-Jan-25 17:28N 38°53' W 076°25'0 0.0
2018-Jan-25 16:58N 38°53' W 076°25'0 0.0
2018-Jan-25 16:28N 38°53' W 076°25'0 0.0
2018-Jan-25 15:58N 38°53' W 076°25'0 0.0
2018-Jan-25 15:28N 38°53' W 076°25'0 0.0
2018-Jan-25 14:58N 38°53' W 076°25'0 0.0
2018-Jan-25 14:28N 38°53' W 076°25'0 0.0
2018-Jan-25 13:58N 38°53' W 076°25'0 0.0
2018-Jan-25 13:28N 38°53' W 076°25'0 0.0
2018-Jan-25 12:58N 38°53' W 076°25'0 0.0
2018-Jan-25 12:28N 38°53' W 076°25'0 0.0
2018-Jan-25 11:58N 38°53' W 076°25'0 0.0
2018-Jan-25 11:28N 38°53' W 076°25'0 0.0
2018-Jan-25 10:58N 38°53' W 076°25'0 0.0
2018-Jan-25 10:28N 38°53' W 076°25'0 0.0
2018-Jan-25 09:58N 38°53' W 076°25'0 0.0
2018-Jan-25 09:28N 38°53' W 076°25'0 0.0
2018-Jan-25 08:58N 38°53' W 076°25'0 0.0
2018-Jan-25 08:28N 38°53' W 076°25'0 0.0
2018-Jan-25 07:58N 38°53' W 076°25'0 0.0
2018-Jan-25 07:28N 38°53' W 076°25'0 0.0
2018-Jan-25 06:58N 38°53' W 076°25'0 0.0
2018-Jan-25 06:28N 38°53' W 076°25'0 0.0
2018-Jan-25 05:58N 38°53' W 076°25'0 0.1
2018-Jan-25 05:28N 38°53' W 076°25'0 0.0
2018-Jan-25 04:58N 38°53' W 076°25'0 0.0
2018-Jan-25 04:28N 38°53' W 076°25'0 0.0
2018-Jan-25 03:58N 38°53' W 076°25'0 0.0
2018-Jan-25 03:28N 38°53' W 076°25'0 0.0
2018-Jan-25 02:55N 38°53' W 076°25'0 0.0
2018-Jan-25 02:28N 38°53' W 076°25'0 0.0
2018-Jan-25 01:58N 38°53' W 076°25'0 0.0
2018-Jan-25 01:28N 38°53' W 076°25'0 0.0
2018-Jan-25 00:58N 38°53' W 076°25'0 0.0
2018-Jan-25 00:28N 38°53' W 076°25'0 0.0
2018-Jan-24 23:58N 38°53' W 076°25'0 0.0
2018-Jan-24 23:28N 38°53' W 076°25'0 0.1
2018-Jan-24 22:58N 38°53' W 076°25'0 0.0
2018-Jan-24 22:28N 38°53' W 076°25'0 0.0
2018-Jan-24 21:58N 38°53' W 076°25'0 0.0
2018-Jan-24 21:28N 38°53' W 076°25'0 0.0
2018-Jan-24 20:58N 38°53' W 076°25'0 0.0
2018-Jan-24 20:28N 38°53' W 076°25'0 0.1
2018-Jan-24 19:58N 38°53' W 076°25'0 0.0
2018-Jan-24 19:28N 38°53' W 076°25'0 0.0
2018-Jan-24 18:58N 38°53' W 076°25'0 0.0
2018-Jan-24 18:28N 38°53' W 076°25'0 0.0
2018-Jan-24 17:58N 38°53' W 076°25'0 0.0
2018-Jan-24 17:28N 38°53' W 076°25'0 0.1
2018-Jan-24 16:58N 38°53' W 076°25'0 0.0
2018-Jan-24 16:28N 38°53' W 076°25'0 0.1
2018-Jan-24 15:58N 38°53' W 076°25'0 0.1
2018-Jan-24 15:28N 38°53' W 076°25'0 0.0
2018-Jan-24 14:58N 38°53' W 076°25'0 0.0
2018-Jan-24 14:28N 38°53' W 076°25'0 0.1
2018-Jan-24 13:58N 38°53' W 076°25'0 0.0
2018-Jan-24 13:28N 38°53' W 076°25'0 0.0
2018-Jan-24 12:58N 38°54' W 076°25'0 0.1
2018-Jan-24 12:28N 38°53' W 076°25'0 0.0
2018-Jan-24 11:58N 38°53' W 076°25'0 0.1
2018-Jan-24 11:28N 38°53' W 076°25'0 0.1
2018-Jan-24 10:58N 38°53' W 076°25'0 0.1
2018-Jan-24 10:28N 38°53' W 076°25'0 0.0
2018-Jan-24 09:58N 38°53' W 076°25'0 0.0
2018-Jan-24 09:28N 38°53' W 076°25'0 0.0
2018-Jan-24 08:58N 38°53' W 076°25'0 0.0
2018-Jan-24 08:28N 38°53' W 076°25'0 0.0
2018-Jan-24 07:58N 38°53' W 076°25'0 0.2
2018-Jan-24 07:30N 38°53' W 076°25'2 4.1
2018-Jan-24 07:00N 38°51' W 076°25'611.5
2018-Jan-24 06:30N 38°46' W 076°26'714.0
2018-Jan-24 06:01N 38°39' W 076°26'3713.9
2018-Jan-24 03:19N 38°03' W 076°13'513.9
2018-Jan-24 02:56N 37°58' W 076°11'5513.0
2018-Jan-23 22:43N 37°03' W 076°05'312.8
2018-Jan-23 22:30N 37°01' W 076°03'611.3
2018-Jan-23 22:00N 36°57' W 075°58'4 8.1
2018-Jan-23 21:29N 36°57' W 075°53'4 8.4
2018-Jan-23 21:00N 36°58' W 075°48'3 5.5
2018-Jan-23 20:30N 36°58' W 075°45'2 4.4
2018-Jan-23 19:57N 36°58' W 075°42'  

Dump ship's entire track history